createdAt,value
2022-10-18T00:00:47.860Z,102562.69
2022-10-18T00:03:14.488Z,102548.75
2022-10-18T00:05:41.075Z,102570.50
2022-10-18T00:08:10.248Z,102567.59
2022-10-18T00:10:37.053Z,102564.13
2022-10-18T00:13:04.149Z,102567.91
2022-10-18T00:15:31.034Z,102569.66
2022-10-18T00:18:00.125Z,102543.53
2022-10-18T00:20:27.133Z,102546.00
2022-10-18T00:22:54.159Z,102557.16
2022-10-18T00:25:21.189Z,102557.59
2022-10-18T00:27:50.083Z,102567.31
2022-10-18T00:30:16.890Z,102539.50
2022-10-18T00:32:43.505Z,102549.34
2022-10-18T00:35:10.191Z,102575.72
2022-10-18T00:37:39.359Z,102567.88
2022-10-18T00:40:06.777Z,102527.91
2022-10-18T00:42:35.598Z,102557.44
2022-10-18T00:45:15.382Z,102554.00
2022-10-18T00:47:44.066Z,102531.66
2022-10-18T00:50:11.527Z,102570.34
2022-10-18T00:52:43.648Z,102560.34
2022-10-18T00:55:11.065Z,102533.09
2022-10-18T00:57:38.960Z,102568.59
2022-10-18T01:00:10.082Z,102570.34
2022-10-18T01:02:41.341Z,102579.63
2022-10-18T01:05:08.681Z,102545.53
2022-10-18T01:08:02.335Z,102547.31
2022-10-18T01:10:49.869Z,102582.50
2022-10-18T01:13:52.463Z,102581.78
2022-10-18T01:16:22.253Z,102591.66
2022-10-18T01:19:36.284Z,102588.00
2022-10-18T01:22:14.320Z,102587.00
2022-10-18T01:25:06.710Z,102585.13
2022-10-18T01:27:52.574Z,102568.31
2022-10-18T01:30:19.352Z,102581.78
2022-10-18T01:32:53.935Z,102557.97
2022-10-18T01:35:27.256Z,102587.56
2022-10-18T01:37:57.980Z,102581.34
2022-10-18T01:40:26.235Z,102579.47
2022-10-18T01:42:53.533Z,102560.00
2022-10-18T01:45:26.372Z,102548.41
2022-10-18T01:47:54.766Z,102577.69
2022-10-18T01:50:35.222Z,102585.94
2022-10-18T01:53:02.485Z,102583.19
2022-10-18T01:55:51.203Z,102557.09
2022-10-18T01:58:49.387Z,102589.16
2022-10-18T02:01:47.481Z,102589.16
2022-10-18T02:04:27.300Z,102590.16
2022-10-18T02:07:03.870Z,102560.13
2022-10-18T02:09:39.745Z,102561.75
2022-10-18T02:12:11.181Z,102559.41
2022-10-18T02:14:40.625Z,102558.28
2022-10-18T02:17:13.174Z,102554.06
2022-10-18T02:19:44.947Z,102580.78
2022-10-18T02:22:14.070Z,102542.91
2022-10-18T02:24:50.709Z,102576.00
2022-10-18T02:27:18.371Z,102574.25
2022-10-18T02:29:51.068Z,102578.59
2022-10-18T02:33:08.252Z,102584.09
2022-10-18T02:35:44.712Z,102548.41
2022-10-18T02:38:15.945Z,102588.75
2022-10-18T02:40:42.620Z,102593.22
2022-10-18T02:43:09.429Z,102563.19
2022-10-18T02:45:36.406Z,102588.47
2022-10-18T02:48:05.703Z,102560.56
2022-10-18T02:50:32.516Z,102577.13
2022-10-18T02:53:01.598Z,102573.91
2022-10-18T02:57:55.234Z,102584.53
2022-10-18T03:00:25.081Z,102595.97
2022-10-18T03:02:54.175Z,102605.13
2022-10-18T03:05:20.812Z,102580.59
2022-10-18T03:07:49.789Z,102609.59
2022-10-18T03:10:16.539Z,102604.09
2022-10-18T03:12:45.466Z,102610.47
2022-10-18T03:15:12.159Z,102576.09
2022-10-18T03:17:39.208Z,102604.09
2022-10-18T03:20:06.639Z,102597.59
2022-10-18T03:22:33.326Z,102606.84
2022-10-18T03:24:59.936Z,102604.84
2022-10-18T03:27:29.018Z,102612.19
2022-10-18T03:29:55.971Z,102600.75
2022-10-18T03:32:22.695Z,102605.97
2022-10-18T03:34:49.321Z,102607.88
2022-10-18T03:37:16.046Z,102582.94
2022-10-18T03:39:42.827Z,102604.09
2022-10-18T03:42:10.175Z,102577.22
2022-10-18T03:44:39.443Z,102581.59
2022-10-18T03:47:06.320Z,102576.22
2022-10-18T03:52:00.479Z,102574.03
2022-10-18T03:54:29.384Z,102594.81
2022-10-18T03:56:56.118Z,102596.19
2022-10-18T03:59:23.033Z,102576.50
2022-10-18T04:01:49.745Z,102580.59
2022-10-18T04:04:16.761Z,102581.88
2022-10-18T04:06:43.864Z,102563.91
2022-10-18T04:09:10.979Z,102562.00
2022-10-18T04:11:39.912Z,102553.31
2022-10-18T04:14:08.811Z,102583.75
2022-10-18T04:19:02.994Z,102567.50
2022-10-18T04:21:29.760Z,102608.22
2022-10-18T04:23:56.354Z,102598.63
2022-10-18T04:26:25.546Z,102584.56
2022-10-18T04:28:52.721Z,102602.56
2022-10-18T04:31:19.395Z,102590.94
2022-10-18T04:33:48.563Z,102598.47
2022-10-18T04:36:15.203Z,102575.41
2022-10-18T04:38:41.788Z,102582.03
2022-10-18T04:41:08.549Z,102581.72
2022-10-18T04:43:37.429Z,102613.34
2022-10-18T04:46:04.198Z,102596.78
2022-10-18T04:48:33.080Z,102585.75
2022-10-18T04:50:59.837Z,102582.28
2022-10-18T04:53:28.874Z,102570.38
2022-10-18T04:55:55.507Z,102596.59
2022-10-18T04:58:22.306Z,102597.91
2022-10-18T05:00:49.942Z,102511.50
2022-10-18T05:03:17.270Z,102579.84
2022-10-18T05:06:02.961Z,102597.81
2022-10-18T05:08:35.148Z,102609.25
2022-10-18T05:11:04.840Z,102583.69
2022-10-18T05:13:31.623Z,102594.13
2022-10-18T05:16:00.413Z,102617.56
2022-10-18T05:18:27.649Z,102617.00
2022-10-18T05:20:54.449Z,102592.00
2022-10-18T05:23:21.388Z,102633.00
2022-10-18T05:25:50.713Z,102633.13
2022-10-18T05:31:08.670Z,102638.44
2022-10-18T05:33:35.817Z,102608.19
2022-10-18T05:36:02.707Z,102607.41
2022-10-18T05:38:31.496Z,102635.84
2022-10-18T05:40:59.354Z,102618.41
2022-10-18T05:43:29.638Z,102605.19
2022-10-18T05:45:56.782Z,102618.94
2022-10-18T05:48:23.532Z,102612.72
2022-10-18T05:50:50.410Z,102632.91
2022-10-18T05:53:45.234Z,102641.59
2022-10-18T05:56:12.025Z,102604.72
2022-10-18T05:58:39.948Z,102629.13
2022-10-18T06:01:06.913Z,102641.59
2022-10-18T06:03:34.212Z,102619.94
2022-10-18T06:06:08.813Z,102614.00
2022-10-18T06:08:36.764Z,102624.28
2022-10-18T06:11:23.694Z,102618.72
2022-10-18T06:13:52.100Z,102652.84
2022-10-18T06:16:21.744Z,102650.09
2022-10-18T06:18:50.390Z,102635.13
2022-10-18T06:21:17.504Z,102647.50
2022-10-18T06:23:48.155Z,102649.38
2022-10-18T06:26:14.827Z,102646.56
2022-10-18T06:28:43.932Z,102680.06
2022-10-18T06:31:11.696Z,102655.00
2022-10-18T06:33:38.849Z,102662.81
2022-10-18T06:36:15.840Z,102632.19
2022-10-18T06:38:44.779Z,102681.28
2022-10-18T06:41:11.511Z,102678.03
2022-10-18T06:43:38.327Z,102699.53
2022-10-18T06:46:07.836Z,102695.00
2022-10-18T06:48:38.737Z,102703.13
2022-10-18T06:51:06.995Z,102695.00
2022-10-18T06:53:43.762Z,102703.25
2022-10-18T06:56:15.450Z,102711.25
2022-10-18T06:58:42.192Z,102702.41
2022-10-18T07:01:16.368Z,102712.59
2022-10-18T07:03:44.400Z,102701.63
2022-10-18T07:06:13.169Z,102719.63
2022-10-18T07:08:40.994Z,102726.28
2022-10-18T07:11:14.545Z,102716.56
2022-10-18T07:13:41.372Z,102730.63
2022-10-18T07:16:18.236Z,102736.97
2022-10-18T07:18:52.350Z,102736.47
2022-10-18T07:21:21.957Z,102728.56
2022-10-18T07:23:49.416Z,102732.19
2022-10-18T07:26:22.534Z,102739.41
2022-10-18T07:29:00.533Z,102737.81
2022-10-18T07:31:28.825Z,102741.44
2022-10-18T07:33:55.661Z,102763.28
2022-10-18T07:36:22.739Z,102757.25
2022-10-18T07:38:49.909Z,102738.22
2022-10-18T07:41:16.616Z,102771.81
2022-10-18T07:43:48.534Z,102761.06
2022-10-18T07:46:15.936Z,102780.97
2022-10-18T07:48:46.687Z,102784.75
2022-10-18T07:51:16.907Z,102785.94
2022-10-18T07:53:45.785Z,102764.47
2022-10-18T07:56:16.436Z,102755.84
2022-10-18T07:58:44.610Z,102765.31
2022-10-18T08:01:12.812Z,102805.66
2022-10-18T08:03:40.221Z,102800.09
2022-10-18T08:06:14.192Z,102797.66
2022-10-18T08:08:43.490Z,102809.09
2022-10-18T08:11:16.522Z,102812.13
2022-10-18T08:13:43.422Z,102811.78
2022-10-18T08:16:13.494Z,102789.09
2022-10-18T08:18:40.516Z,102812.78
2022-10-18T08:21:10.649Z,102793.66
2022-10-18T08:23:41.350Z,102809.69
2022-10-18T08:26:12.112Z,102812.31
2022-10-18T08:28:46.106Z,102812.66
2022-10-18T08:31:20.806Z,102791.06
2022-10-18T08:33:49.738Z,102825.53
2022-10-18T08:36:19.911Z,102788.84
2022-10-18T08:38:46.665Z,102801.13
2022-10-18T08:41:38.190Z,102827.59
2022-10-18T08:44:16.091Z,102832.03
2022-10-18T08:46:47.055Z,102837.72
2022-10-18T08:49:22.423Z,102833.97
2022-10-18T08:51:51.872Z,102824.25
2022-10-18T08:54:26.083Z,102792.66
2022-10-18T08:57:00.934Z,102837.50
2022-10-18T08:59:34.518Z,102844.81
2022-10-18T09:02:18.328Z,102838.47
2022-10-18T09:05:08.855Z,102839.25
2022-10-18T09:07:57.032Z,102843.59
2022-10-18T09:10:29.869Z,102846.22
2022-10-18T09:13:18.332Z,102851.28
2022-10-18T09:16:06.864Z,102828.38
2022-10-18T09:18:52.203Z,102842.72
2022-10-18T09:21:43.514Z,102844.19
2022-10-18T09:24:28.132Z,102838.81
2022-10-18T09:27:01.589Z,102841.88
2022-10-18T09:29:53.915Z,102849.56
2022-10-18T09:32:23.583Z,102840.88
2022-10-18T09:34:56.417Z,102849.13
2022-10-18T09:37:27.350Z,102845.03
2022-10-18T09:40:04.984Z,102846.50
2022-10-18T09:42:38.245Z,102825.88
2022-10-18T09:45:31.016Z,102830.03
2022-10-18T09:48:03.896Z,102837.44
2022-10-18T09:50:45.437Z,102802.09
2022-10-18T09:53:35.351Z,102845.63
2022-10-18T09:56:04.912Z,102844.34
2022-10-18T09:58:44.468Z,102807.16
2022-10-18T10:01:16.818Z,102837.25
2022-10-18T10:03:43.754Z,102815.22
2022-10-18T10:06:15.084Z,102847.13
2022-10-18T10:08:47.855Z,102816.84
2022-10-18T10:11:34.839Z,102842.13
2022-10-18T10:14:17.733Z,102846.25
2022-10-18T10:16:52.552Z,102827.13
2022-10-18T10:19:31.386Z,102837.63
2022-10-18T10:22:08.960Z,102834.50
2022-10-18T10:24:40.839Z,102837.81
2022-10-18T10:27:18.038Z,102863.59
2022-10-18T10:29:47.495Z,102872.03
2022-10-18T10:32:17.988Z,102852.19
2022-10-18T10:34:45.415Z,102845.50
2022-10-18T10:37:32.371Z,102876.25
2022-10-18T10:40:45.878Z,102882.38
2022-10-18T10:43:42.001Z,102886.28
2022-10-18T10:46:20.595Z,102888.41
2022-10-18T10:49:04.472Z,102882.28
2022-10-18T10:51:42.200Z,102846.00
2022-10-18T10:54:24.432Z,102868.75
2022-10-18T10:57:11.670Z,102825.56
2022-10-18T11:00:02.322Z,102882.91
2022-10-18T11:02:29.403Z,102890.16
2022-10-18T11:04:57.637Z,102877.69
2022-10-18T11:07:46.796Z,102895.53
2022-10-18T11:10:28.480Z,102906.44
2022-10-18T11:13:28.869Z,102863.63
2022-10-18T11:16:05.278Z,102873.47
2022-10-18T11:18:36.485Z,102894.31
2022-10-18T11:21:17.600Z,102866.06
2022-10-18T11:23:45.655Z,102891.56
2022-10-18T11:26:12.169Z,102900.25
2022-10-18T11:29:16.320Z,102873.81
2022-10-18T11:32:01.811Z,102891.78
2022-10-18T11:34:40.383Z,102896.63
2022-10-18T11:37:34.545Z,102879.13
2022-10-18T11:40:27.662Z,102884.97
2022-10-18T11:43:15.572Z,102884.81
2022-10-18T11:45:51.799Z,102886.38
2022-10-18T11:48:46.393Z,102868.69
2022-10-18T11:51:34.223Z,102877.94
2022-10-18T11:54:32.644Z,102882.91
2022-10-18T11:57:17.747Z,102881.00
2022-10-18T12:00:11.777Z,102877.94
2022-10-18T12:03:15.591Z,102876.41
2022-10-18T12:05:46.041Z,102869.75
2022-10-18T12:08:17.183Z,102863.03
2022-10-18T12:11:09.465Z,102868.97
2022-10-18T12:13:46.840Z,102871.97
2022-10-18T12:16:15.185Z,102847.53
2022-10-18T12:18:56.335Z,102875.19
2022-10-18T12:21:26.164Z,102846.06
2022-10-18T12:23:57.669Z,102860.78
2022-10-18T12:26:27.215Z,102840.91
2022-10-18T12:29:03.003Z,102858.88
2022-10-18T12:31:57.361Z,102843.13
2022-10-18T12:34:24.288Z,102858.91
2022-10-18T12:37:17.381Z,102832.03
2022-10-18T12:40:10.554Z,102819.69
2022-10-18T12:42:54.649Z,102852.31
2022-10-18T12:45:35.229Z,102835.91
2022-10-18T12:48:07.245Z,102853.28
2022-10-18T12:50:43.655Z,102851.91
2022-10-18T12:53:10.556Z,102849.31
2022-10-18T12:55:39.854Z,102857.78
2022-10-18T12:58:29.212Z,102855.88
2022-10-18T13:00:58.598Z,102815.59
2022-10-18T13:03:25.161Z,102847.03
2022-10-18T13:06:06.437Z,102835.53
2022-10-18T13:08:41.504Z,102849.66
2022-10-18T13:11:08.233Z,102832.88
2022-10-18T13:13:40.146Z,102842.59
2022-10-18T13:16:25.563Z,102835.28
2022-10-18T13:19:29.964Z,102841.19
2022-10-18T13:22:24.715Z,102837.69
2022-10-18T13:25:05.737Z,102837.81
2022-10-18T13:28:05.919Z,102830.41
2022-10-18T13:31:01.846Z,102816.19
2022-10-18T13:33:31.504Z,102837.38
2022-10-18T13:36:00.004Z,102807.78
2022-10-18T13:38:47.538Z,102841.16
2022-10-18T13:43:54.361Z,102831.66
2022-10-18T13:46:44.458Z,102820.34
2022-10-18T13:49:15.026Z,102843.47
2022-10-18T13:51:47.438Z,102838.09
2022-10-18T13:54:23.187Z,102841.88
2022-10-18T13:57:20.749Z,102843.97
2022-10-18T13:59:50.377Z,102845.31
2022-10-18T14:02:59.596Z,102838.34
2022-10-18T14:05:55.593Z,102848.25
2022-10-18T14:08:35.117Z,102843.84
2022-10-18T14:11:08.226Z,102848.84
2022-10-18T14:13:48.027Z,102838.97
2022-10-18T14:16:53.558Z,102841.56
2022-10-18T14:19:25.916Z,102847.25
2022-10-18T14:21:59.598Z,102836.97
2022-10-18T14:24:29.446Z,102811.94
2022-10-18T14:27:18.832Z,102843.16
2022-10-18T14:29:49.469Z,102844.50
2022-10-18T14:32:29.244Z,102846.22
2022-10-18T14:35:27.634Z,102846.22
2022-10-18T14:37:48.644Z,102816.56
2022-10-18T14:40:39.167Z,102808.88
2022-10-18T14:43:19.722Z,102847.75
2022-10-18T14:45:46.662Z,102825.78
2022-10-18T14:48:15.764Z,102845.94
2022-10-18T14:50:46.016Z,102824.84
2022-10-18T14:53:21.379Z,102828.88
2022-10-18T14:56:05.611Z,102809.75
2022-10-18T14:58:36.094Z,102793.81
2022-10-18T15:01:03.446Z,102846.16
2022-10-18T15:03:38.402Z,102846.63
2022-10-18T15:06:09.119Z,102851.94
2022-10-18T15:08:45.612Z,102806.53
2022-10-18T15:11:16.071Z,102817.19
2022-10-18T15:13:57.559Z,102780.66
2022-10-18T15:16:27.631Z,102759.53
2022-10-18T15:19:16.285Z,102843.72
2022-10-18T15:22:19.798Z,102848.16
2022-10-18T15:25:07.028Z,102835.88
2022-10-18T15:27:38.242Z,102846.59
2022-10-18T15:30:23.579Z,102854.34
2022-10-18T15:33:02.281Z,102840.03
2022-10-18T15:35:36.484Z,102835.50
2022-10-18T15:38:21.606Z,102842.94
2022-10-18T15:40:50.770Z,102846.91
2022-10-18T15:43:23.629Z,102850.22
2022-10-18T15:46:06.959Z,102850.53
2022-10-18T15:48:35.729Z,102812.25
2022-10-18T15:51:27.398Z,102846.81
2022-10-18T15:53:54.865Z,102842.03
2022-10-18T15:56:35.688Z,102822.03
2022-10-18T15:59:21.798Z,102818.72
2022-10-18T16:01:54.023Z,102820.19
2022-10-18T16:04:26.084Z,102818.75
2022-10-18T16:06:55.727Z,102859.09
2022-10-18T16:09:24.976Z,102857.94
2022-10-18T16:11:57.230Z,102818.19
2022-10-18T16:14:25.337Z,102864.91
2022-10-18T16:16:56.208Z,102858.56
2022-10-18T16:19:23.190Z,102839.41
2022-10-18T16:21:51.567Z,102856.50
2022-10-18T16:24:18.568Z,102856.38
2022-10-18T16:26:45.931Z,102843.56
2022-10-18T16:29:24.381Z,102875.09
2022-10-18T16:31:53.796Z,102844.28
2022-10-18T16:34:20.476Z,102883.72
2022-10-18T16:36:47.103Z,102876.59
2022-10-18T16:39:19.212Z,102881.66
2022-10-18T16:41:56.094Z,102859.09
2022-10-18T16:44:25.412Z,102890.88
2022-10-18T16:46:53.994Z,102891.72
2022-10-18T16:49:25.072Z,102869.13
2022-10-18T16:51:53.452Z,102881.75
2022-10-18T16:54:20.198Z,102901.16
2022-10-18T16:56:50.213Z,102875.13
2022-10-18T16:59:29.274Z,102889.16
2022-10-18T17:01:56.169Z,102864.50
2022-10-18T17:04:22.875Z,102863.97
2022-10-18T17:06:49.873Z,102887.44
2022-10-18T17:09:16.617Z,102899.75
2022-10-18T17:11:43.505Z,102903.28
2022-10-18T17:14:10.151Z,102909.28
2022-10-18T17:16:38.934Z,102908.94
2022-10-18T17:19:10.483Z,102890.31
2022-10-18T17:21:39.860Z,102884.72
2022-10-18T17:24:06.554Z,102884.63
2022-10-18T17:26:34.350Z,102915.69
2022-10-18T17:29:05.365Z,102916.09
2022-10-18T17:31:37.114Z,102913.50
2022-10-18T17:34:04.610Z,102910.63
2022-10-18T17:36:33.005Z,102897.13
2022-10-18T17:38:59.946Z,102922.13
2022-10-18T17:41:29.645Z,102900.63
2022-10-18T17:43:59.053Z,102932.34
2022-10-18T17:46:25.905Z,102905.63
2022-10-18T17:48:53.833Z,102911.34
2022-10-18T17:51:20.522Z,102941.69
2022-10-18T17:53:49.571Z,102929.06
2022-10-18T17:56:16.834Z,102943.94
2022-10-18T17:58:43.770Z,102957.91
2022-10-18T18:01:17.514Z,102960.16
2022-10-18T18:03:44.928Z,102946.28
2022-10-18T18:06:20.192Z,102940.41
2022-10-18T18:08:48.283Z,102896.91
2022-10-18T18:11:15.675Z,102927.63
2022-10-18T18:13:47.466Z,102914.34
2022-10-18T18:16:20.697Z,102953.53
2022-10-18T18:18:50.090Z,102959.00
2022-10-18T18:21:22.626Z,102925.75
2022-10-18T18:23:50.082Z,102943.22
2022-10-18T18:26:17.648Z,102930.31
2022-10-18T18:28:44.492Z,102969.28
2022-10-18T18:31:15.999Z,102967.88
2022-10-18T18:33:43.353Z,102948.94
2022-10-18T18:36:13.550Z,102962.78
2022-10-18T18:38:42.860Z,102939.28
2022-10-18T18:41:15.761Z,102967.63
2022-10-18T18:44:05.412Z,102968.72
2022-10-18T18:46:36.814Z,102970.94
2022-10-18T18:49:06.832Z,102966.81
2022-10-18T18:51:37.482Z,102946.66
2022-10-18T18:54:04.255Z,102953.13
2022-10-18T18:56:31.066Z,102948.97
2022-10-18T18:58:59.544Z,102956.34
2022-10-18T19:01:32.097Z,102959.41
2022-10-18T19:04:02.217Z,102936.25
2022-10-18T19:06:39.603Z,102957.66
2022-10-18T19:09:12.484Z,102929.25
2022-10-18T19:11:40.292Z,102928.72
2022-10-18T19:14:08.418Z,102965.81
2022-10-18T19:16:37.265Z,102937.78
2022-10-18T19:19:19.197Z,102964.50
2022-10-18T19:21:51.874Z,102949.19
2022-10-18T19:25:35.419Z,102917.69
2022-10-18T19:27:25.307Z,102948.09
2022-10-18T19:29:52.017Z,102907.50
2022-10-18T19:32:19.153Z,102919.75
2022-10-18T19:34:45.842Z,102951.84
2022-10-18T19:37:13.776Z,102973.28
2022-10-18T19:39:40.564Z,102941.09
2022-10-18T19:42:15.710Z,102974.81
2022-10-18T19:44:45.439Z,102951.56
2022-10-18T19:47:16.176Z,102971.63
2022-10-18T19:49:43.148Z,102935.16
2022-10-18T19:52:12.682Z,102944.75
2022-10-18T19:54:39.571Z,102980.38
2022-10-18T19:57:07.284Z,102971.78
2022-10-18T19:59:36.086Z,102922.19
2022-10-18T20:02:05.046Z,102892.59
2022-10-18T20:04:35.064Z,102857.59
2022-10-18T20:07:03.021Z,102982.41
2022-10-18T20:09:32.061Z,102915.38
2022-10-18T20:11:59.119Z,102929.59
2022-10-18T20:14:29.126Z,102929.91
2022-10-18T20:16:55.917Z,102984.66
2022-10-18T20:19:22.610Z,102979.03
2022-10-18T20:21:49.452Z,102988.97
2022-10-18T20:24:16.086Z,102971.53
2022-10-18T20:26:43.929Z,102910.41
2022-10-18T20:29:10.863Z,102936.22
2022-10-18T20:31:39.509Z,102924.16
2022-10-18T20:34:09.198Z,102983.78
2022-10-18T20:36:36.461Z,102864.22
2022-10-18T20:39:05.295Z,102983.31
2022-10-18T20:41:38.260Z,102978.91
2022-10-18T20:44:11.713Z,102977.59
2022-10-18T20:46:39.354Z,102945.16
2022-10-18T20:49:07.744Z,102973.50
2022-10-18T20:51:35.312Z,102972.25
2022-10-18T20:56:34.388Z,102934.56
2022-10-18T20:59:01.970Z,102969.72
2022-10-18T21:01:31.201Z,102958.75
2022-10-18T21:04:03.849Z,102926.59
2022-10-18T21:06:37.260Z,102976.84
2022-10-18T21:09:07.010Z,102975.31
2022-10-18T21:11:41.130Z,102973.75
2022-10-18T21:14:10.879Z,102918.59
2022-10-18T21:16:37.487Z,102971.44
2022-10-18T21:19:07.792Z,102971.63
2022-10-18T21:21:34.925Z,102969.09
2022-10-18T21:24:05.311Z,102908.13
2022-10-18T21:26:34.584Z,102960.44
2022-10-18T21:29:01.314Z,102937.03
2022-10-18T21:31:30.633Z,102957.31
2022-10-18T21:34:05.606Z,102893.66
2022-10-18T21:36:34.496Z,102958.56
2022-10-18T21:39:02.865Z,102927.38
2022-10-18T21:41:32.552Z,102928.53
2022-10-18T21:43:59.303Z,102945.28
2022-10-18T21:46:27.177Z,102886.44
2022-10-18T21:48:57.765Z,102929.69
2022-10-18T21:51:26.367Z,102953.56
2022-10-18T21:53:59.819Z,102916.72
2022-10-18T21:56:29.335Z,102954.75
2022-10-18T21:58:57.740Z,102947.22
2022-10-18T22:01:32.685Z,102947.22
2022-10-18T22:04:03.822Z,102962.81
2022-10-18T22:06:32.910Z,102924.03
2022-10-18T22:09:02.069Z,102962.91
2022-10-18T22:11:38.258Z,102958.50
2022-10-18T22:14:05.043Z,102921.16
2022-10-18T22:16:32.383Z,102951.97
2022-10-18T22:19:03.748Z,102918.72
2022-10-18T22:21:33.168Z,102962.09
2022-10-18T22:24:08.320Z,102910.41
2022-10-18T22:26:40.088Z,102909.53
2022-10-18T22:29:13.937Z,102954.47
2022-10-18T22:31:43.700Z,102950.47
2022-10-18T22:34:17.741Z,102949.56
2022-10-18T22:36:44.689Z,102947.84
2022-10-18T22:39:14.803Z,102956.09
2022-10-18T22:41:41.931Z,102949.25
2022-10-18T22:44:12.406Z,102964.38
2022-10-18T22:46:40.196Z,102916.97
2022-10-18T22:49:07.655Z,102924.88
2022-10-18T22:54:02.597Z,102929.63
2022-10-18T22:56:29.418Z,102971.25
2022-10-18T22:58:56.221Z,102965.91
2022-10-18T23:01:24.279Z,102962.44
2022-10-18T23:03:59.261Z,102964.41
2022-10-18T23:06:25.834Z,102966.53
2022-10-18T23:08:53.860Z,102940.91
2022-10-18T23:11:20.970Z,102943.28
2022-10-18T23:13:47.919Z,102948.53
2022-10-18T23:16:15.283Z,102952.50
2022-10-18T23:18:42.061Z,102980.78
2022-10-18T23:21:17.390Z,102972.69
2022-10-18T23:23:44.478Z,102961.97
2022-10-18T23:26:16.947Z,102938.63
2022-10-18T23:28:45.912Z,102946.53
2022-10-18T23:31:24.419Z,102964.25
2022-10-18T23:33:53.338Z,102959.91
2022-10-18T23:36:20.611Z,102948.75
2022-10-18T23:38:47.215Z,102928.53
2022-10-18T23:41:15.732Z,102962.19
2022-10-18T23:43:43.322Z,102955.41
2022-10-18T23:46:14.057Z,102960.69
2022-10-18T23:48:40.948Z,102950.53
2022-10-18T23:51:08.587Z,102924.34
2022-10-18T23:53:36.219Z,102927.41
2022-10-18T23:56:11.487Z,102947.78
2022-10-18T23:58:39.334Z,102960.06
